sensor_id;sensor_type;location;lat;lon;timestamp;P1;durP1;ratioP1;P2;durP2;ratioP2
45354;SDS011;31091;48.758;9.150;2022-09-01T00:02:28;14.32;;;10.07;;
45354;SDS011;31091;48.758;9.150;2022-09-01T00:05:13;13.52;;;8.93;;
45354;SDS011;31091;48.758;9.150;2022-09-01T00:07:59;13.05;;;10.02;;
45354;SDS011;31091;48.758;9.150;2022-09-01T00:10:44;12.68;;;8.60;;
45354;SDS011;31091;48.758;9.150;2022-09-01T00:13:30;15.15;;;10.00;;
45354;SDS011;31091;48.758;9.150;2022-09-01T00:16:18;15.52;;;9.43;;
45354;SDS011;31091;48.758;9.150;2022-09-01T00:19:05;17.42;;;9.93;;
45354;SDS011;31091;48.758;9.150;2022-09-01T00:21:51;14.45;;;10.15;;
45354;SDS011;31091;48.758;9.150;2022-09-01T00:24:36;15.80;;;10.07;;
45354;SDS011;31091;48.758;9.150;2022-09-01T00:27:22;14.98;;;9.95;;
45354;SDS011;31091;48.758;9.150;2022-09-01T00:30:08;14.88;;;10.30;;
45354;SDS011;31091;48.758;9.150;2022-09-01T00:32:53;14.45;;;10.35;;
45354;SDS011;31091;48.758;9.150;2022-09-01T00:35:39;12.60;;;9.73;;
45354;SDS011;31091;48.758;9.150;2022-09-01T00:38:24;12.73;;;9.48;;
45354;SDS011;31091;48.758;9.150;2022-09-01T00:41:10;15.45;;;10.70;;
45354;SDS011;31091;48.758;9.150;2022-09-01T00:43:57;14.20;;;9.68;;
45354;SDS011;31091;48.758;9.150;2022-09-01T00:46:45;13.95;;;10.57;;
45354;SDS011;31091;48.758;9.150;2022-09-01T00:49:33;13.63;;;10.18;;
45354;SDS011;31091;48.758;9.150;2022-09-01T00:52:26;15.20;;;10.70;;
45354;SDS011;31091;48.758;9.150;2022-09-01T00:55:15;16.95;;;10.45;;
45354;SDS011;31091;48.758;9.150;2022-09-01T00:58:03;15.98;;;11.02;;
45354;SDS011;31091;48.758;9.150;2022-09-01T01:00:51;12.45;;;9.35;;
45354;SDS011;31091;48.758;9.150;2022-09-01T01:03:37;18.60;;;10.90;;
45354;SDS011;31091;48.758;9.150;2022-09-01T01:06:25;12.90;;;10.07;;
45354;SDS011;31091;48.758;9.150;2022-09-01T01:09:18;17.35;;;11.38;;
45354;SDS011;31091;48.758;9.150;2022-09-01T01:12:04;13.15;;;10.95;;
45354;SDS011;31091;48.758;9.150;2022-09-01T01:14:50;12.35;;;10.07;;
45354;SDS011;31091;48.758;9.150;2022-09-01T01:17:35;17.55;;;10.43;;
45354;SDS011;31091;48.758;9.150;2022-09-01T01:20:23;13.90;;;10.98;;
45354;SDS011;31091;48.758;9.150;2022-09-01T01:26:21;15.50;;;12.07;;
45354;SDS011;31091;48.758;9.150;2022-09-01T01:29:07;18.27;;;11.35;;
45354;SDS011;31091;48.758;9.150;2022-09-01T01:31:54;14.35;;;9.90;;
45354;SDS011;31091;48.758;9.150;2022-09-01T01:34:39;14.25;;;10.57;;
45354;SDS011;31091;48.758;9.150;2022-09-01T01:37:26;13.93;;;10.98;;
45354;SDS011;31091;48.758;9.150;2022-09-01T01:40:12;16.00;;;10.40;;
45354;SDS011;31091;48.758;9.150;2022-09-01T01:42:59;13.30;;;10.18;;
45354;SDS011;31091;48.758;9.150;2022-09-01T01:45:46;13.90;;;10.68;;
45354;SDS011;31091;48.758;9.150;2022-09-01T01:48:37;16.02;;;11.23;;
45354;SDS011;31091;48.758;9.150;2022-09-01T01:51:23;16.17;;;11.40;;
45354;SDS011;31091;48.758;9.150;2022-09-01T01:54:13;13.88;;;10.82;;
45354;SDS011;31091;48.758;9.150;2022-09-01T01:57:00;15.75;;;11.55;;
45354;SDS011;31091;48.758;9.150;2022-09-01T01:59:48;14.82;;;10.68;;
45354;SDS011;31091;48.758;9.150;2022-09-01T02:02:34;18.65;;;11.38;;
45354;SDS011;31091;48.758;9.150;2022-09-01T02:05:23;14.48;;;11.23;;
45354;SDS011;31091;48.758;9.150;2022-09-01T02:08:10;17.50;;;11.52;;
45354;SDS011;31091;48.758;9.150;2022-09-01T02:10:55;15.13;;;11.27;;
45354;SDS011;31091;48.758;9.150;2022-09-01T02:13:44;14.15;;;10.52;;
45354;SDS011;31091;48.758;9.150;2022-09-01T02:16:31;14.05;;;10.75;;
45354;SDS011;31091;48.758;9.150;2022-09-01T02:19:17;14.52;;;11.57;;
45354;SDS011;31091;48.758;9.150;2022-09-01T02:22:05;13.25;;;10.27;;
45354;SDS011;31091;48.758;9.150;2022-09-01T02:24:50;13.32;;;11.38;;
45354;SDS011;31091;48.758;9.150;2022-09-01T02:27:36;18.83;;;11.27;;
45354;SDS011;31091;48.758;9.150;2022-09-01T02:30:23;12.57;;;10.63;;
45354;SDS011;31091;48.758;9.150;2022-09-01T02:33:12;14.38;;;11.65;;
45354;SDS011;31091;48.758;9.150;2022-09-01T02:36:05;16.52;;;12.18;;
45354;SDS011;31091;48.758;9.150;2022-09-01T02:38:51;16.70;;;11.38;;
45354;SDS011;31091;48.758;9.150;2022-09-01T02:41:37;15.32;;;9.85;;
45354;SDS011;31091;48.758;9.150;2022-09-01T02:44:23;16.58;;;10.68;;
45354;SDS011;31091;48.758;9.150;2022-09-01T02:47:12;19.00;;;11.52;;
45354;SDS011;31091;48.758;9.150;2022-09-01T02:49:57;14.13;;;11.70;;
45354;SDS011;31091;48.758;9.150;2022-09-01T02:52:46;18.37;;;12.57;;
45354;SDS011;31091;48.758;9.150;2022-09-01T02:55:37;14.43;;;10.48;;
45354;SDS011;31091;48.758;9.150;2022-09-01T02:58:23;14.20;;;10.82;;
45354;SDS011;31091;48.758;9.150;2022-09-01T03:01:10;15.65;;;11.32;;
45354;SDS011;31091;48.758;9.150;2022-09-01T03:03:58;14.73;;;11.38;;
45354;SDS011;31091;48.758;9.150;2022-09-01T03:06:44;14.55;;;11.25;;
45354;SDS011;31091;48.758;9.150;2022-09-01T03:09:31;17.42;;;12.27;;
45354;SDS011;31091;48.758;9.150;2022-09-01T03:12:17;21.27;;;11.98;;
45354;SDS011;31091;48.758;9.150;2022-09-01T03:15:04;14.75;;;11.52;;
45354;SDS011;31091;48.758;9.150;2022-09-01T03:17:50;17.52;;;10.95;;
45354;SDS011;31091;48.758;9.150;2022-09-01T03:20:37;15.52;;;11.15;;
45354;SDS011;31091;48.758;9.150;2022-09-01T03:23:23;18.75;;;11.00;;
45354;SDS011;31091;48.758;9.150;2022-09-01T03:26:09;14.88;;;11.48;;
45354;SDS011;31091;48.758;9.150;2022-09-01T03:28:55;16.02;;;11.93;;
45354;SDS011;31091;48.758;9.150;2022-09-01T03:31:41;17.05;;;11.77;;
45354;SDS011;31091;48.758;9.150;2022-09-01T03:34:27;15.35;;;11.57;;
45354;SDS011;31091;48.758;9.150;2022-09-01T03:37:12;17.95;;;11.43;;
45354;SDS011;31091;48.758;9.150;2022-09-01T03:39:58;18.50;;;11.75;;
45354;SDS011;31091;48.758;9.150;2022-09-01T03:42:44;16.83;;;12.73;;
45354;SDS011;31091;48.758;9.150;2022-09-01T03:45:30;15.52;;;12.77;;
45354;SDS011;31091;48.758;9.150;2022-09-01T03:48:18;19.55;;;12.13;;
45354;SDS011;31091;48.758;9.150;2022-09-01T03:51:04;15.15;;;11.73;;
45354;SDS011;31091;48.758;9.150;2022-09-01T03:53:51;14.40;;;11.80;;
45354;SDS011;31091;48.758;9.150;2022-09-01T03:56:38;13.98;;;11.30;;
45354;SDS011;31091;48.758;9.150;2022-09-01T03:59:25;21.25;;;14.27;;
45354;SDS011;31091;48.758;9.150;2022-09-01T04:02:12;14.65;;;11.73;;
45354;SDS011;31091;48.758;9.150;2022-09-01T04:04:58;15.75;;;12.57;;
45354;SDS011;31091;48.758;9.150;2022-09-01T04:07:44;17.60;;;13.77;;
45354;SDS011;31091;48.758;9.150;2022-09-01T04:10:33;16.55;;;10.70;;
45354;SDS011;31091;48.758;9.150;2022-09-01T04:13:27;16.00;;;12.65;;
45354;SDS011;31091;48.758;9.150;2022-09-01T04:16:16;14.55;;;11.43;;
45354;SDS011;31091;48.758;9.150;2022-09-01T04:19:22;17.55;;;12.18;;
45354;SDS011;31091;48.758;9.150;2022-09-01T04:22:11;16.60;;;12.13;;
45354;SDS011;31091;48.758;9.150;2022-09-01T04:24:58;15.10;;;11.82;;
45354;SDS011;31091;48.758;9.150;2022-09-01T04:27:44;18.65;;;13.93;;
45354;SDS011;31091;48.758;9.150;2022-09-01T04:30:30;14.32;;;11.45;;
45354;SDS011;31091;48.758;9.150;2022-09-01T04:33:16;17.90;;;13.35;;
45354;SDS011;31091;48.758;9.150;2022-09-01T04:36:03;16.45;;;13.82;;
45354;SDS011;31091;48.758;9.150;2022-09-01T04:38:51;17.45;;;13.18;;
45354;SDS011;31091;48.758;9.150;2022-09-01T04:41:41;14.75;;;11.05;;
45354;SDS011;31091;48.758;9.150;2022-09-01T04:44:27;17.75;;;11.95;;
45354;SDS011;31091;48.758;9.150;2022-09-01T04:47:13;16.08;;;12.50;;
45354;SDS011;31091;48.758;9.150;2022-09-01T04:50:05;17.55;;;11.55;;
45354;SDS011;31091;48.758;9.150;2022-09-01T04:52:57;17.33;;;13.25;;
45354;SDS011;31091;48.758;9.150;2022-09-01T04:55:45;15.15;;;11.38;;
45354;SDS011;31091;48.758;9.150;2022-09-01T04:58:31;17.38;;;12.13;;
45354;SDS011;31091;48.758;9.150;2022-09-01T05:01:19;20.95;;;13.98;;
45354;SDS011;31091;48.758;9.150;2022-09-01T05:04:05;15.82;;;13.05;;
45354;SDS011;31091;48.758;9.150;2022-09-01T05:06:51;16.73;;;12.90;;
45354;SDS011;31091;48.758;9.150;2022-09-01T05:09:40;17.20;;;13.10;;
45354;SDS011;31091;48.758;9.150;2022-09-01T05:12:25;14.73;;;12.32;;
45354;SDS011;31091;48.758;9.150;2022-09-01T05:15:12;16.27;;;13.23;;
45354;SDS011;31091;48.758;9.150;2022-09-01T05:17:58;20.42;;;13.82;;
45354;SDS011;31091;48.758;9.150;2022-09-01T05:20:46;20.55;;;13.20;;
45354;SDS011;31091;48.758;9.150;2022-09-01T05:23:32;17.73;;;12.73;;
45354;SDS011;31091;48.758;9.150;2022-09-01T05:26:19;15.23;;;13.07;;
45354;SDS011;31091;48.758;9.150;2022-09-01T05:29:05;18.23;;;13.23;;
45354;SDS011;31091;48.758;9.150;2022-09-01T05:31:57;17.90;;;13.70;;
45354;SDS011;31091;48.758;9.150;2022-09-01T05:34:43;20.55;;;13.38;;
45354;SDS011;31091;48.758;9.150;2022-09-01T05:37:29;17.42;;;13.85;;
45354;SDS011;31091;48.758;9.150;2022-09-01T05:40:15;14.98;;;12.98;;
45354;SDS011;31091;48.758;9.150;2022-09-01T05:43:00;19.10;;;14.52;;
45354;SDS011;31091;48.758;9.150;2022-09-01T05:45:46;18.10;;;13.60;;
45354;SDS011;31091;48.758;9.150;2022-09-01T05:48:32;25.60;;;14.60;;
45354;SDS011;31091;48.758;9.150;2022-09-01T05:51:22;21.48;;;13.85;;
45354;SDS011;31091;48.758;9.150;2022-09-01T05:54:11;20.92;;;14.55;;
45354;SDS011;31091;48.758;9.150;2022-09-01T05:56:56;25.48;;;16.83;;
45354;SDS011;31091;48.758;9.150;2022-09-01T05:59:43;22.65;;;15.35;;
45354;SDS011;31091;48.758;9.150;2022-09-01T06:02:31;21.08;;;14.95;;
45354;SDS011;31091;48.758;9.150;2022-09-01T06:05:18;22.90;;;15.02;;
45354;SDS011;31091;48.758;9.150;2022-09-01T06:08:04;19.05;;;14.80;;
45354;SDS011;31091;48.758;9.150;2022-09-01T06:10:51;18.38;;;14.82;;
45354;SDS011;31091;48.758;9.150;2022-09-01T06:13:37;17.10;;;13.05;;
45354;SDS011;31091;48.758;9.150;2022-09-01T06:16:24;19.67;;;13.27;;
45354;SDS011;31091;48.758;9.150;2022-09-01T06:19:09;17.80;;;13.15;;
45354;SDS011;31091;48.758;9.150;2022-09-01T06:21:56;18.67;;;13.65;;
45354;SDS011;31091;48.758;9.150;2022-09-01T06:24:42;21.13;;;15.23;;
45354;SDS011;31091;48.758;9.150;2022-09-01T06:27:28;17.17;;;14.60;;
45354;SDS011;31091;48.758;9.150;2022-09-01T06:30:14;20.42;;;15.80;;
45354;SDS011;31091;48.758;9.150;2022-09-01T06:33:04;19.15;;;13.48;;
45354;SDS011;31091;48.758;9.150;2022-09-01T06:35:53;15.65;;;12.82;;
45354;SDS011;31091;48.758;9.150;2022-09-01T06:38:40;17.17;;;13.90;;
45354;SDS011;31091;48.758;9.150;2022-09-01T06:41:27;22.35;;;14.25;;
45354;SDS011;31091;48.758;9.150;2022-09-01T06:44:13;18.63;;;14.30;;
45354;SDS011;31091;48.758;9.150;2022-09-01T06:46:58;18.90;;;13.90;;
45354;SDS011;31091;48.758;9.150;2022-09-01T06:49:44;18.27;;;13.38;;
45354;SDS011;31091;48.758;9.150;2022-09-01T06:52:30;24.05;;;15.38;;
45354;SDS011;31091;48.758;9.150;2022-09-01T06:55:15;17.13;;;13.65;;
45354;SDS011;31091;48.758;9.150;2022-09-01T06:58:01;18.80;;;14.45;;
45354;SDS011;31091;48.758;9.150;2022-09-01T07:00:50;16.75;;;13.55;;
45354;SDS011;31091;48.758;9.150;2022-09-01T07:03:36;16.50;;;13.43;;
45354;SDS011;31091;48.758;9.150;2022-09-01T07:06:23;18.13;;;13.73;;
45354;SDS011;31091;48.758;9.150;2022-09-01T07:09:11;14.93;;;13.30;;
45354;SDS011;31091;48.758;9.150;2022-09-01T07:11:57;19.55;;;14.32;;
45354;SDS011;31091;48.758;9.150;2022-09-01T07:14:44;20.00;;;14.60;;
45354;SDS011;31091;48.758;9.150;2022-09-01T07:17:31;17.60;;;13.50;;
45354;SDS011;31091;48.758;9.150;2022-09-01T07:20:17;17.23;;;14.55;;
45354;SDS011;31091;48.758;9.150;2022-09-01T07:23:05;18.55;;;14.52;;
45354;SDS011;31091;48.758;9.150;2022-09-01T07:25:50;15.98;;;14.27;;
45354;SDS011;31091;48.758;9.150;2022-09-01T07:28:39;18.20;;;13.57;;
45354;SDS011;31091;48.758;9.150;2022-09-01T07:31:26;20.23;;;13.60;;
45354;SDS011;31091;48.758;9.150;2022-09-01T07:34:12;15.15;;;12.77;;
45354;SDS011;31091;48.758;9.150;2022-09-01T07:36:58;14.45;;;11.32;;
45354;SDS011;31091;48.758;9.150;2022-09-01T07:39:44;14.93;;;11.32;;
45354;SDS011;31091;48.758;9.150;2022-09-01T07:42:30;15.82;;;11.52;;
45354;SDS011;31091;48.758;9.150;2022-09-01T07:45:16;15.02;;;11.65;;
45354;SDS011;31091;48.758;9.150;2022-09-01T07:48:04;15.02;;;12.38;;
45354;SDS011;31091;48.758;9.150;2022-09-01T07:50:51;14.73;;;11.55;;
45354;SDS011;31091;48.758;9.150;2022-09-01T07:53:37;16.63;;;11.43;;
45354;SDS011;31091;48.758;9.150;2022-09-01T07:56:23;14.60;;;10.73;;
45354;SDS011;31091;48.758;9.150;2022-09-01T07:59:09;12.25;;;10.27;;
45354;SDS011;31091;48.758;9.150;2022-09-01T08:01:54;13.50;;;10.40;;
45354;SDS011;31091;48.758;9.150;2022-09-01T08:04:41;15.32;;;11.68;;
45354;SDS011;31091;48.758;9.150;2022-09-01T08:07:27;14.98;;;10.20;;
45354;SDS011;31091;48.758;9.150;2022-09-01T08:10:12;15.00;;;11.43;;
45354;SDS011;31091;48.758;9.150;2022-09-01T08:12:58;11.80;;;9.73;;
45354;SDS011;31091;48.758;9.150;2022-09-01T08:15:43;13.32;;;9.80;;
45354;SDS011;31091;48.758;9.150;2022-09-01T08:18:29;14.70;;;9.75;;
45354;SDS011;31091;48.758;9.150;2022-09-01T08:21:16;14.02;;;10.45;;
45354;SDS011;31091;48.758;9.150;2022-09-01T08:24:02;12.95;;;9.80;;
45354;SDS011;31091;48.758;9.150;2022-09-01T08:26:47;13.80;;;10.25;;
45354;SDS011;31091;48.758;9.150;2022-09-01T08:29:33;14.68;;;10.27;;
45354;SDS011;31091;48.758;9.150;2022-09-01T08:32:18;15.77;;;10.88;;
45354;SDS011;31091;48.758;9.150;2022-09-01T08:35:06;14.43;;;9.90;;
45354;SDS011;31091;48.758;9.150;2022-09-01T08:37:51;12.70;;;10.02;;
45354;SDS011;31091;48.758;9.150;2022-09-01T08:40:37;11.13;;;8.38;;
45354;SDS011;31091;48.758;9.150;2022-09-01T08:46:13;10.70;;;8.57;;
45354;SDS011;31091;48.758;9.150;2022-09-01T08:49:03;12.15;;;9.38;;
45354;SDS011;31091;48.758;9.150;2022-09-01T08:52:12;11.32;;;8.73;;
45354;SDS011;31091;48.758;9.150;2022-09-01T08:58:11;9.55;;;8.07;;
45354;SDS011;31091;48.758;9.150;2022-09-01T09:03:52;13.23;;;7.75;;
45354;SDS011;31091;48.758;9.150;2022-09-01T09:09:45;11.65;;;6.75;;
45354;SDS011;31091;48.758;9.150;2022-09-01T09:12:36;9.88;;;6.88;;
45354;SDS011;31091;48.758;9.150;2022-09-01T09:15:36;9.73;;;6.82;;
45354;SDS011;31091;48.758;9.150;2022-09-01T09:21:17;8.88;;;6.97;;
45354;SDS011;31091;48.758;9.150;2022-09-01T09:24:09;8.55;;;6.47;;
45354;SDS011;31091;48.758;9.150;2022-09-01T09:26:57;9.77;;;6.88;;
45354;SDS011;31091;48.758;9.150;2022-09-01T09:29:50;7.45;;;5.57;;
45354;SDS011;31091;48.758;9.150;2022-09-01T09:32:42;10.00;;;5.70;;
45354;SDS011;31091;48.758;9.150;2022-09-01T09:38:21;7.43;;;6.15;;
45354;SDS011;31091;48.758;9.150;2022-09-01T09:41:16;9.73;;;5.93;;
45354;SDS011;31091;48.758;9.150;2022-09-01T09:47:35;10.32;;;6.80;;
45354;SDS011;31091;48.758;9.150;2022-09-01T09:56:15;9.93;;;6.75;;
45354;SDS011;31091;48.758;9.150;2022-09-01T09:59:02;10.05;;;6.72;;
45354;SDS011;31091;48.758;9.150;2022-09-01T10:02:13;9.65;;;6.57;;
45354;SDS011;31091;48.758;9.150;2022-09-01T10:05:48;10.25;;;6.80;;
45354;SDS011;31091;48.758;9.150;2022-09-01T10:08:09;8.38;;;5.63;;
45354;SDS011;31091;48.758;9.150;2022-09-01T10:10:55;8.55;;;4.93;;
45354;SDS011;31091;48.758;9.150;2022-09-01T10:13:40;6.53;;;5.30;;
45354;SDS011;31091;48.758;9.150;2022-09-01T10:16:30;6.57;;;4.55;;
45354;SDS011;31091;48.758;9.150;2022-09-01T10:19:16;9.00;;;5.05;;
45354;SDS011;31091;48.758;9.150;2022-09-01T10:22:02;7.00;;;4.70;;
45354;SDS011;31091;48.758;9.150;2022-09-01T10:24:47;7.57;;;5.20;;
45354;SDS011;31091;48.758;9.150;2022-09-01T10:27:38;9.77;;;4.85;;
45354;SDS011;31091;48.758;9.150;2022-09-01T10:30:24;6.65;;;4.28;;
45354;SDS011;31091;48.758;9.150;2022-09-01T10:33:11;5.53;;;3.67;;
45354;SDS011;31091;48.758;9.150;2022-09-01T10:35:57;5.00;;;3.63;;
45354;SDS011;31091;48.758;9.150;2022-09-01T10:38:42;6.47;;;3.80;;
45354;SDS011;31091;48.758;9.150;2022-09-01T10:41:47;4.47;;;3.53;;
45354;SDS011;31091;48.758;9.150;2022-09-01T10:44:35;5.57;;;3.88;;
45354;SDS011;31091;48.758;9.150;2022-09-01T10:47:27;5.47;;;3.38;;
45354;SDS011;31091;48.758;9.150;2022-09-01T10:50:25;4.75;;;3.40;;
45354;SDS011;31091;48.758;9.150;2022-09-01T11:02:04;3.95;;;2.92;;
45354;SDS011;31091;48.758;9.150;2022-09-01T11:07:38;5.28;;;3.70;;
45354;SDS011;31091;48.758;9.150;2022-09-01T11:10:45;4.30;;;2.65;;
45354;SDS011;31091;48.758;9.150;2022-09-01T11:13:47;5.50;;;3.35;;
45354;SDS011;31091;48.758;9.150;2022-09-01T11:36:56;6.85;;;3.90;;
45354;SDS011;31091;48.758;9.150;2022-09-01T11:39:50;4.30;;;3.60;;
45354;SDS011;31091;48.758;9.150;2022-09-01T11:42:38;5.72;;;3.50;;
45354;SDS011;31091;48.758;9.150;2022-09-01T11:45:26;4.15;;;3.67;;
45354;SDS011;31091;48.758;9.150;2022-09-01T11:48:12;5.18;;;3.67;;
45354;SDS011;31091;48.758;9.150;2022-09-01T11:50:59;4.90;;;3.85;;
45354;SDS011;31091;48.758;9.150;2022-09-01T11:53:46;5.50;;;3.65;;
45354;SDS011;31091;48.758;9.150;2022-09-01T11:56:31;6.28;;;3.75;;
45354;SDS011;31091;48.758;9.150;2022-09-01T11:59:30;5.18;;;3.95;;
45354;SDS011;31091;48.758;9.150;2022-09-01T12:02:17;4.07;;;3.15;;
45354;SDS011;31091;48.758;9.150;2022-09-01T12:05:03;4.05;;;2.90;;
45354;SDS011;31091;48.758;9.150;2022-09-01T12:08:12;4.53;;;2.88;;
45354;SDS011;31091;48.758;9.150;2022-09-01T12:11:03;4.45;;;3.15;;
45354;SDS011;31091;48.758;9.150;2022-09-01T12:13:56;4.63;;;3.33;;
45354;SDS011;31091;48.758;9.150;2022-09-01T12:16:42;3.38;;;2.50;;
45354;SDS011;31091;48.758;9.150;2022-09-01T12:19:30;5.47;;;3.17;;
45354;SDS011;31091;48.758;9.150;2022-09-01T12:22:17;4.93;;;3.22;;
45354;SDS011;31091;48.758;9.150;2022-09-01T12:25:04;4.03;;;2.90;;
45354;SDS011;31091;48.758;9.150;2022-09-01T12:27:50;4.30;;;2.85;;
45354;SDS011;31091;48.758;9.150;2022-09-01T12:30:36;3.33;;;2.97;;
45354;SDS011;31091;48.758;9.150;2022-09-01T12:33:24;3.88;;;2.72;;
45354;SDS011;31091;48.758;9.150;2022-09-01T12:39:18;3.30;;;2.75;;
45354;SDS011;31091;48.758;9.150;2022-09-01T12:50:33;4.30;;;3.45;;
45354;SDS011;31091;48.758;9.150;2022-09-01T12:53:19;4.43;;;3.35;;
45354;SDS011;31091;48.758;9.150;2022-09-01T12:59:21;5.75;;;3.33;;
45354;SDS011;31091;48.758;9.150;2022-09-01T13:08:03;5.55;;;3.40;;
45354;SDS011;31091;48.758;9.150;2022-09-01T13:10:52;4.88;;;3.33;;
45354;SDS011;31091;48.758;9.150;2022-09-01T13:13:37;6.78;;;3.65;;
45354;SDS011;31091;48.758;9.150;2022-09-01T13:16:23;4.82;;;2.92;;
45354;SDS011;31091;48.758;9.150;2022-09-01T13:19:08;5.22;;;3.45;;
45354;SDS011;31091;48.758;9.150;2022-09-01T13:21:54;5.07;;;3.50;;
45354;SDS011;31091;48.758;9.150;2022-09-01T13:24:39;4.20;;;3.40;;
45354;SDS011;31091;48.758;9.150;2022-09-01T13:27:25;6.60;;;2.65;;
45354;SDS011;31091;48.758;9.150;2022-09-01T13:30:12;3.97;;;2.70;;
45354;SDS011;31091;48.758;9.150;2022-09-01T13:33:00;4.13;;;2.50;;
45354;SDS011;31091;48.758;9.150;2022-09-01T13:35:46;3.95;;;3.00;;
45354;SDS011;31091;48.758;9.150;2022-09-01T13:38:32;5.70;;;3.08;;
45354;SDS011;31091;48.758;9.150;2022-09-01T13:41:17;3.95;;;3.00;;
45354;SDS011;31091;48.758;9.150;2022-09-01T13:44:03;3.50;;;2.80;;
45354;SDS011;31091;48.758;9.150;2022-09-01T13:46:48;3.85;;;2.90;;
45354;SDS011;31091;48.758;9.150;2022-09-01T13:49:34;3.58;;;2.50;;
45354;SDS011;31091;48.758;9.150;2022-09-01T13:52:20;3.60;;;2.72;;
45354;SDS011;31091;48.758;9.150;2022-09-01T13:55:06;3.70;;;3.17;;
45354;SDS011;31091;48.758;9.150;2022-09-01T13:57:52;3.80;;;2.95;;
45354;SDS011;31091;48.758;9.150;2022-09-01T14:00:39;4.38;;;3.20;;
45354;SDS011;31091;48.758;9.150;2022-09-01T14:03:25;5.85;;;3.20;;
45354;SDS011;31091;48.758;9.150;2022-09-01T14:06:10;6.20;;;3.00;;
45354;SDS011;31091;48.758;9.150;2022-09-01T14:08:56;6.00;;;3.38;;
45354;SDS011;31091;48.758;9.150;2022-09-01T14:11:42;3.33;;;2.97;;
45354;SDS011;31091;48.758;9.150;2022-09-01T14:14:28;4.57;;;3.50;;
45354;SDS011;31091;48.758;9.150;2022-09-01T14:17:13;3.70;;;3.13;;
45354;SDS011;31091;48.758;9.150;2022-09-01T14:19:59;3.35;;;3.05;;
45354;SDS011;31091;48.758;9.150;2022-09-01T14:22:45;3.63;;;3.00;;
45354;SDS011;31091;48.758;9.150;2022-09-01T14:25:31;3.55;;;2.90;;
45354;SDS011;31091;48.758;9.150;2022-09-01T14:28:18;5.63;;;3.20;;
45354;SDS011;31091;48.758;9.150;2022-09-01T14:31:08;4.72;;;3.35;;
45354;SDS011;31091;48.758;9.150;2022-09-01T14:33:54;5.95;;;3.55;;
45354;SDS011;31091;48.758;9.150;2022-09-01T14:36:39;3.50;;;2.95;;
45354;SDS011;31091;48.758;9.150;2022-09-01T14:39:25;3.83;;;3.00;;
45354;SDS011;31091;48.758;9.150;2022-09-01T14:42:10;4.53;;;3.30;;
45354;SDS011;31091;48.758;9.150;2022-09-01T14:44:56;4.38;;;2.60;;
45354;SDS011;31091;48.758;9.150;2022-09-01T14:47:42;4.03;;;3.08;;
45354;SDS011;31091;48.758;9.150;2022-09-01T14:50:29;5.65;;;2.88;;
45354;SDS011;31091;48.758;9.150;2022-09-01T14:53:16;5.40;;;3.17;;
45354;SDS011;31091;48.758;9.150;2022-09-01T14:56:02;3.97;;;3.00;;
45354;SDS011;31091;48.758;9.150;2022-09-01T14:58:48;5.47;;;2.65;;
45354;SDS011;31091;48.758;9.150;2022-09-01T15:01:34;4.72;;;3.20;;
45354;SDS011;31091;48.758;9.150;2022-09-01T15:04:20;5.53;;;2.80;;
45354;SDS011;31091;48.758;9.150;2022-09-01T15:07:05;2.60;;;1.90;;
45354;SDS011;31091;48.758;9.150;2022-09-01T15:09:51;3.13;;;2.50;;
45354;SDS011;31091;48.758;9.150;2022-09-01T15:12:37;3.83;;;2.25;;
45354;SDS011;31091;48.758;9.150;2022-09-01T15:15:24;3.63;;;2.20;;
45354;SDS011;31091;48.758;9.150;2022-09-01T15:18:10;4.13;;;2.50;;
45354;SDS011;31091;48.758;9.150;2022-09-01T15:20:56;3.30;;;2.10;;
45354;SDS011;31091;48.758;9.150;2022-09-01T15:23:41;4.18;;;2.72;;
45354;SDS011;31091;48.758;9.150;2022-09-01T15:26:28;2.60;;;2.28;;
45354;SDS011;31091;48.758;9.150;2022-09-01T15:29:13;4.03;;;2.53;;
45354;SDS011;31091;48.758;9.150;2022-09-01T15:31:59;3.05;;;2.60;;
45354;SDS011;31091;48.758;9.150;2022-09-01T15:34:46;2.40;;;2.10;;
45354;SDS011;31091;48.758;9.150;2022-09-01T15:37:31;3.53;;;2.60;;
45354;SDS011;31091;48.758;9.150;2022-09-01T15:40:17;2.97;;;2.30;;
45354;SDS011;31091;48.758;9.150;2022-09-01T15:43:03;4.57;;;2.83;;
45354;SDS011;31091;48.758;9.150;2022-09-01T15:45:49;4.20;;;2.63;;
45354;SDS011;31091;48.758;9.150;2022-09-01T15:48:34;3.50;;;2.42;;
45354;SDS011;31091;48.758;9.150;2022-09-01T15:54:07;4.03;;;3.20;;
45354;SDS011;31091;48.758;9.150;2022-09-01T15:56:53;3.78;;;2.88;;
45354;SDS011;31091;48.758;9.150;2022-09-01T15:59:38;2.92;;;2.47;;
45354;SDS011;31091;48.758;9.150;2022-09-01T16:02:26;3.78;;;2.53;;
45354;SDS011;31091;48.758;9.150;2022-09-01T16:05:12;5.75;;;2.78;;
45354;SDS011;31091;48.758;9.150;2022-09-01T16:07:57;4.10;;;2.88;;
45354;SDS011;31091;48.758;9.150;2022-09-01T16:10:45;2.42;;;2.22;;
45354;SDS011;31091;48.758;9.150;2022-09-01T16:13:31;2.90;;;2.60;;
45354;SDS011;31091;48.758;9.150;2022-09-01T16:25:00;4.07;;;2.80;;
45354;SDS011;31091;48.758;9.150;2022-09-01T16:27:45;4.57;;;2.90;;
45354;SDS011;31091;48.758;9.150;2022-09-01T16:30:31;4.57;;;2.70;;
45354;SDS011;31091;48.758;9.150;2022-09-01T16:33:17;3.58;;;2.67;;
45354;SDS011;31091;48.758;9.150;2022-09-01T17:16:15;4.25;;;2.78;;
45354;SDS011;31091;48.758;9.150;2022-09-01T17:19:06;4.40;;;3.47;;
45354;SDS011;31091;48.758;9.150;2022-09-01T17:22:01;5.75;;;3.15;;
45354;SDS011;31091;48.758;9.150;2022-09-01T17:24:49;3.90;;;2.83;;
45354;SDS011;31091;48.758;9.150;2022-09-01T17:27:57;5.72;;;3.05;;
45354;SDS011;31091;48.758;9.150;2022-09-01T17:31:02;5.07;;;3.25;;
45354;SDS011;31091;48.758;9.150;2022-09-01T17:36:48;3.90;;;3.20;;
45354;SDS011;31091;48.758;9.150;2022-09-01T17:39:40;5.45;;;2.90;;
45354;SDS011;31091;48.758;9.150;2022-09-01T18:00:27;3.85;;;2.70;;
45354;SDS011;31091;48.758;9.150;2022-09-01T18:06:25;5.03;;;2.92;;
45354;SDS011;31091;48.758;9.150;2022-09-01T18:09:14;3.50;;;2.78;;
45354;SDS011;31091;48.758;9.150;2022-09-01T18:12:05;8.95;;;2.92;;
45354;SDS011;31091;48.758;9.150;2022-09-01T18:21:08;4.97;;;2.83;;
45354;SDS011;31091;48.758;9.150;2022-09-01T18:23:57;4.32;;;2.67;;
45354;SDS011;31091;48.758;9.150;2022-09-01T18:26:44;3.30;;;2.72;;
45354;SDS011;31091;48.758;9.150;2022-09-01T18:29:30;2.92;;;2.60;;
45354;SDS011;31091;48.758;9.150;2022-09-01T18:35:15;6.30;;;2.67;;
45354;SDS011;31091;48.758;9.150;2022-09-01T18:38:07;4.78;;;3.00;;
45354;SDS011;31091;48.758;9.150;2022-09-01T18:41:07;5.80;;;3.35;;
45354;SDS011;31091;48.758;9.150;2022-09-01T18:47:00;5.22;;;3.40;;
45354;SDS011;31091;48.758;9.150;2022-09-01T18:52:42;4.68;;;3.47;;
45354;SDS011;31091;48.758;9.150;2022-09-01T18:55:44;4.03;;;3.20;;
45354;SDS011;31091;48.758;9.150;2022-09-01T19:01:38;5.15;;;3.25;;
45354;SDS011;31091;48.758;9.150;2022-09-01T19:04:46;6.07;;;3.50;;
45354;SDS011;31091;48.758;9.150;2022-09-01T19:07:42;5.82;;;3.92;;
45354;SDS011;31091;48.758;9.150;2022-09-01T19:14:23;5.25;;;3.17;;
45354;SDS011;31091;48.758;9.150;2022-09-01T19:20:01;4.88;;;3.72;;
45354;SDS011;31091;48.758;9.150;2022-09-01T19:22:53;5.22;;;3.58;;
45354;SDS011;31091;48.758;9.150;2022-09-01T19:25:41;7.15;;;3.50;;
45354;SDS011;31091;48.758;9.150;2022-09-01T19:31:24;7.82;;;3.70;;
45354;SDS011;31091;48.758;9.150;2022-09-01T19:34:12;7.97;;;4.43;;
45354;SDS011;31091;48.758;9.150;2022-09-01T19:37:00;6.18;;;3.60;;
45354;SDS011;31091;48.758;9.150;2022-09-01T19:39:47;4.18;;;3.55;;
45354;SDS011;31091;48.758;9.150;2022-09-01T19:42:55;7.50;;;2.92;;